createdAt,value
2024-01-26T00:00:57.351Z,-2.57
2024-01-26T00:06:01.766Z,-2.46
2024-01-26T00:11:04.768Z,-2.40
2024-01-26T00:16:08.769Z,-2.38
2024-01-26T00:21:11.788Z,-2.62
2024-01-26T00:26:15.646Z,-2.52
2024-01-26T00:31:19.466Z,-2.23
2024-01-26T00:36:22.538Z,-2.76
2024-01-26T00:41:25.876Z,-2.69
2024-01-26T00:46:28.715Z,-2.75
2024-01-26T00:51:31.970Z,-2.24
2024-01-26T00:56:35.329Z,-2.64
2024-01-26T01:01:38.638Z,-2.72
2024-01-26T01:06:41.459Z,-2.67
2024-01-26T01:11:44.202Z,-2.81
2024-01-26T01:16:47.920Z,-2.46
2024-01-26T01:21:51.489Z,-2.42
2024-01-26T01:26:54.267Z,-2.62
2024-01-26T01:31:57.068Z,-2.53
2024-01-26T01:37:00.232Z,-2.73
2024-01-26T01:42:02.996Z,-2.75
2024-01-26T01:47:06.260Z,-2.86
2024-01-26T01:52:10.531Z,-2.41
2024-01-26T01:57:14.361Z,-2.46
2024-01-26T02:02:17.036Z,-2.42
2024-01-26T02:07:19.848Z,-2.61
2024-01-26T02:12:22.470Z,-2.61
2024-01-26T02:17:32.434Z,-2.47
2024-01-26T02:22:35.160Z,-2.68
2024-01-26T02:27:38.975Z,-2.83
2024-01-26T02:32:42.392Z,-2.71
2024-01-26T02:37:45.063Z,-3.05
2024-01-26T02:42:47.896Z,-2.70
2024-01-26T02:47:50.763Z,-2.58
2024-01-26T02:52:53.552Z,-2.77
2024-01-26T02:57:58.447Z,-2.62
2024-01-26T03:03:01.216Z,-2.95
2024-01-26T03:08:04.295Z,-2.79
2024-01-26T03:13:06.953Z,-2.88
2024-01-26T03:18:09.730Z,-2.72
2024-01-26T03:23:12.686Z,-3.11
2024-01-26T03:28:15.480Z,-2.80
2024-01-26T03:33:19.488Z,-3.09
2024-01-26T03:38:22.201Z,-2.68
2024-01-26T03:43:24.951Z,-2.67
2024-01-26T03:48:27.917Z,-3.09
2024-01-26T03:53:30.929Z,-2.79
2024-01-26T03:58:33.779Z,-2.75
2024-01-26T04:03:36.800Z,-2.76
2024-01-26T04:08:39.667Z,-3.99
2024-01-26T04:13:42.587Z,-5.65
2024-01-26T04:18:45.847Z,-3.13
2024-01-26T04:23:48.702Z,-3.02
2024-01-26T04:28:51.301Z,-2.92
2024-01-26T04:33:54.059Z,-2.93
2024-01-26T04:38:56.974Z,-2.87
2024-01-26T04:44:02.097Z,-2.96
2024-01-26T04:49:05.446Z,-3.17
2024-01-26T04:54:08.513Z,-3.12
2024-01-26T04:59:11.257Z,-3.54
2024-01-26T05:04:14.980Z,-3.40
2024-01-26T05:09:20.755Z,-3.00
2024-01-26T05:14:23.845Z,-3.15
2024-01-26T05:19:26.573Z,-4.07
2024-01-26T05:24:29.268Z,-2.97
2024-01-26T05:29:32.755Z,-2.97
2024-01-26T05:34:35.587Z,-3.09
2024-01-26T05:39:38.282Z,-3.05
2024-01-26T05:44:41.002Z,-3.56
2024-01-26T05:49:45.976Z,-3.28
2024-01-26T05:54:48.517Z,-3.27
2024-01-26T05:59:51.129Z,-3.29
2024-01-26T06:04:54.850Z,-3.27
2024-01-26T06:09:57.609Z,-3.05
2024-01-26T06:15:00.308Z,-3.43
2024-01-26T06:20:05.239Z,-3.24
2024-01-26T06:25:08.123Z,-3.18
2024-01-26T06:30:11.498Z,-3.30
2024-01-26T06:35:14.289Z,-3.14
2024-01-26T06:40:18.729Z,-3.63
2024-01-26T06:45:21.692Z,-3.54
2024-01-26T06:50:24.373Z,-3.54
2024-01-26T06:55:27.096Z,-3.11
2024-01-26T07:00:31.527Z,-3.27
2024-01-26T07:05:36.633Z,-3.79
2024-01-26T07:10:39.622Z,-4.89
2024-01-26T07:15:45.061Z,-3.09
2024-01-26T07:20:47.743Z,-3.32
2024-01-26T07:25:50.349Z,-3.21
2024-01-26T07:30:53.034Z,-3.40
2024-01-26T07:35:55.703Z,-3.32
2024-01-26T07:41:00.998Z,-3.06
2024-01-26T07:46:04.040Z,-3.26
2024-01-26T07:51:06.789Z,-5.67
2024-01-26T07:56:10.097Z,-5.25
2024-01-26T08:01:15.671Z,-3.46
2024-01-26T08:06:19.679Z,-3.65
2024-01-26T08:11:22.472Z,-3.09
2024-01-26T08:16:25.078Z,-3.18
2024-01-26T08:21:27.881Z,-3.20
2024-01-26T08:26:32.278Z,-3.12
2024-01-26T08:31:36.146Z,-3.29
2024-01-26T08:36:39.163Z,-3.51
2024-01-26T08:41:47.412Z,-3.13
2024-01-26T08:46:52.019Z,-2.98
2024-01-26T08:51:59.141Z,-2.85
2024-01-26T08:57:02.244Z,-3.05
2024-01-26T09:02:04.910Z,-3.15
2024-01-26T09:07:10.688Z,-2.90
2024-01-26T09:12:14.151Z,-2.82
2024-01-26T09:17:19.746Z,-3.40
2024-01-26T09:22:23.790Z,-2.91
2024-01-26T09:27:28.825Z,-3.71
2024-01-26T09:32:32.418Z,-3.09
2024-01-26T09:37:35.227Z,-3.02
2024-01-26T09:42:37.814Z,-2.75
2024-01-26T09:47:41.619Z,-2.76
2024-01-26T09:52:44.516Z,-3.69
2024-01-26T09:57:49.029Z,-2.62
2024-01-26T10:02:54.034Z,-2.61
2024-01-26T10:07:56.993Z,-2.90
2024-01-26T10:12:59.658Z,-2.71
2024-01-26T10:18:02.552Z,-2.45
2024-01-26T10:23:06.317Z,-2.52
2024-01-26T10:28:10.754Z,-2.61
2024-01-26T10:33:14.988Z,-2.41
2024-01-26T10:38:19.193Z,-2.49
2024-01-26T10:43:22.034Z,-2.71
2024-01-26T10:48:25.955Z,-2.54
2024-01-26T10:53:29.068Z,-2.45
2024-01-26T10:58:31.781Z,-2.33
2024-01-26T11:03:34.862Z,-2.72
2024-01-26T11:08:37.916Z,-2.30
2024-01-26T11:13:40.821Z,-3.34
2024-01-26T11:18:43.671Z,-2.52
2024-01-26T11:23:47.539Z,-2.39
2024-01-26T11:28:50.537Z,-2.93
2024-01-26T11:33:54.393Z,-2.65
2024-01-26T11:38:58.095Z,-2.42
2024-01-26T11:44:02.672Z,-2.51
2024-01-26T11:49:06.226Z,-2.31
2024-01-26T11:54:09.144Z,-2.31
2024-01-26T11:59:12.586Z,-2.71
2024-01-26T12:04:15.350Z,-2.51
2024-01-26T12:09:31.082Z,-4.52
2024-01-26T12:21:17.677Z,-2.72
2024-01-26T12:26:20.445Z,-2.47
2024-01-26T12:31:23.340Z,-2.97
2024-01-26T12:36:35.633Z,-2.76
2024-01-26T12:41:55.107Z,-4.71
2024-01-26T12:47:06.616Z,-3.06
2024-01-26T12:52:09.534Z,-2.59
2024-01-26T12:57:12.096Z,-2.62
2024-01-26T13:02:31.101Z,-6.34
2024-01-26T13:07:48.060Z,-4.42
2024-01-26T13:12:50.867Z,-2.67
2024-01-26T13:23:45.384Z,-5.19
2024-01-26T13:40:36.976Z,-4.67
2024-01-26T13:52:09.866Z,-4.78
2024-01-26T13:57:27.134Z,-2.83
2024-01-26T14:02:57.525Z,-5.29
2024-01-26T14:08:25.965Z,-5.26
2024-01-26T14:13:38.270Z,-4.29
2024-01-26T14:18:47.822Z,-4.95
2024-01-26T14:23:56.781Z,-3.04
2024-01-26T14:29:13.096Z,-6.67
2024-01-26T14:34:34.708Z,-6.61
2024-01-26T14:39:53.267Z,-5.40
2024-01-26T14:45:05.438Z,-5.26
2024-01-26T14:50:12.076Z,-5.83
2024-01-26T14:55:23.030Z,-3.34
2024-01-26T15:00:31.403Z,-6.98
2024-01-26T15:05:39.753Z,-4.28
2024-01-26T15:10:47.707Z,-4.78
2024-01-26T15:16:04.732Z,-7.06
2024-01-26T15:21:49.427Z,-3.55
2024-01-26T15:26:53.675Z,-3.72
2024-01-26T15:31:58.776Z,-4.06
2024-01-26T15:37:01.315Z,-3.73
2024-01-26T15:42:06.645Z,-3.70
2024-01-26T15:47:09.867Z,-4.03
2024-01-26T15:52:12.499Z,-3.74
2024-01-26T15:57:15.296Z,-3.82
2024-01-26T16:02:17.938Z,-3.99
2024-01-26T16:07:20.518Z,-4.00
2024-01-26T16:12:23.148Z,-3.93
2024-01-26T16:17:25.919Z,-3.96
2024-01-26T16:22:28.656Z,-4.11
2024-01-26T16:27:33.719Z,-3.89
2024-01-26T16:32:36.427Z,-3.80
2024-01-26T16:37:41.196Z,-4.72
2024-01-26T16:42:44.390Z,-3.85
2024-01-26T16:47:47.540Z,-3.98
2024-01-26T16:52:50.144Z,-4.05
2024-01-26T16:57:54.873Z,-4.28
2024-01-26T17:02:59.030Z,-4.09
2024-01-26T17:08:04.451Z,-4.39
2024-01-26T17:13:07.032Z,-4.84
2024-01-26T17:18:09.708Z,-4.06
2024-01-26T17:23:15.186Z,-4.06
2024-01-26T17:28:18.070Z,-4.85
2024-01-26T17:33:20.803Z,-4.52
2024-01-26T17:38:27.379Z,-4.26
2024-01-26T17:43:30.220Z,-4.33
2024-01-26T17:48:48.950Z,-5.83
2024-01-26T17:54:10.823Z,-7.59
2024-01-26T17:59:30.257Z,-7.88
2024-01-26T18:04:35.889Z,-4.70
2024-01-26T18:09:44.895Z,-6.49
2024-01-26T18:14:53.778Z,-7.54
2024-01-26T18:19:56.518Z,-5.01
2024-01-26T18:24:59.113Z,-4.76
2024-01-26T18:30:01.957Z,-4.52
2024-01-26T18:35:07.788Z,-4.59
2024-01-26T18:40:12.502Z,-4.22
2024-01-26T18:45:15.210Z,-4.55
2024-01-26T18:50:25.985Z,-4.57
2024-01-26T18:55:28.847Z,-4.34
2024-01-26T19:00:33.841Z,-4.37
2024-01-26T19:05:36.952Z,-4.40
2024-01-26T19:10:43.385Z,-4.83
2024-01-26T19:15:47.490Z,-5.31
2024-01-26T19:20:50.840Z,-4.64
2024-01-26T19:25:53.594Z,-4.32
2024-01-26T19:30:56.204Z,-4.45
2024-01-26T19:35:58.896Z,-4.85
2024-01-26T19:41:02.581Z,-4.68
2024-01-26T19:46:05.444Z,-4.32
2024-01-26T19:51:09.329Z,-4.60
2024-01-26T19:56:14.196Z,-4.66
2024-01-26T20:01:18.280Z,-4.76
2024-01-26T20:06:21.042Z,-4.55
2024-01-26T20:11:26.165Z,-4.48
2024-01-26T20:16:28.963Z,-4.46
2024-01-26T20:21:31.588Z,-4.66
2024-01-26T20:26:34.414Z,-4.66
2024-01-26T20:31:39.638Z,-4.37
2024-01-26T20:36:43.067Z,-4.61
2024-01-26T20:41:47.852Z,-4.50
2024-01-26T20:46:50.601Z,-4.57
2024-01-26T20:51:53.244Z,-4.62
2024-01-26T20:56:55.977Z,-4.38
2024-01-26T21:01:59.372Z,-4.59
2024-01-26T21:07:01.993Z,-4.69
2024-01-26T21:12:06.636Z,-4.50
2024-01-26T21:17:10.304Z,-4.71
2024-01-26T21:22:16.232Z,-4.71
2024-01-26T21:27:21.823Z,-4.70
2024-01-26T21:32:24.419Z,-4.86
2024-01-26T21:37:27.074Z,-4.53
2024-01-26T21:42:30.235Z,-4.41
2024-01-26T21:47:33.377Z,-4.73
2024-01-26T21:52:37.421Z,-4.68
2024-01-26T21:57:40.619Z,-4.64
2024-01-26T22:02:43.478Z,-4.56
2024-01-26T22:07:48.335Z,-4.64
2024-01-26T22:12:50.976Z,-4.71
2024-01-26T22:17:53.742Z,-4.99
2024-01-26T22:22:56.346Z,-4.53
2024-01-26T22:27:59.386Z,-4.77
2024-01-26T22:33:01.987Z,-4.66
2024-01-26T22:38:04.810Z,-4.69
2024-01-26T22:43:07.288Z,-4.62
2024-01-26T22:48:10.035Z,-4.72
2024-01-26T22:53:12.665Z,-5.24
2024-01-26T22:58:15.433Z,-5.10
2024-01-26T23:03:18.116Z,-4.84
2024-01-26T23:08:20.769Z,-4.96
2024-01-26T23:13:23.314Z,-4.70
2024-01-26T23:18:26.327Z,-4.91
2024-01-26T23:23:29.244Z,-4.94
2024-01-26T23:28:31.808Z,-4.70
2024-01-26T23:33:34.725Z,-5.06
2024-01-26T23:38:37.595Z,-5.06
2024-01-26T23:43:40.882Z,-4.79
2024-01-26T23:48:44.735Z,-4.83
2024-01-26T23:53:49.577Z,-4.78
2024-01-26T23:58:52.160Z,-4.90
